createdAt,value
2022-10-23T00:01:46.203Z,11.70
2022-10-23T00:04:21.935Z,11.70
2022-10-23T00:06:50.258Z,11.70
2022-10-23T00:09:23.797Z,12.10
2022-10-23T00:11:53.369Z,10.30
2022-10-23T00:14:24.463Z,10.30
2022-10-23T00:16:52.797Z,12.50
2022-10-23T00:19:21.094Z,11.80
2022-10-23T00:21:49.491Z,11.40
2022-10-23T00:24:17.937Z,11.30
2022-10-23T00:26:46.160Z,11.40
2022-10-23T00:29:14.426Z,11.00
2022-10-23T00:31:42.690Z,12.00
2022-10-23T00:34:11.121Z,12.30
2022-10-23T00:36:39.453Z,12.20
2022-10-23T00:39:07.714Z,11.70
2022-10-23T00:41:36.506Z,12.40
2022-10-23T00:44:30.756Z,10.40
2022-10-23T00:46:59.938Z,11.60
2022-10-23T00:49:28.524Z,11.30
2022-10-23T00:52:02.081Z,11.70
2022-10-23T00:54:37.290Z,12.90
2022-10-23T00:57:11.546Z,12.60
2022-10-23T00:59:39.958Z,11.40
2022-10-23T01:02:09.371Z,11.30
2022-10-23T01:04:38.454Z,11.80
2022-10-23T01:07:17.644Z,13.00
2022-10-23T01:10:08.629Z,12.90
2022-10-23T01:13:20.872Z,13.10
2022-10-23T01:16:33.806Z,12.40
2022-10-23T01:19:20.437Z,11.10
2022-10-23T01:22:10.307Z,12.90
2022-10-23T01:25:29.882Z,13.40
2022-10-23T01:28:09.441Z,12.20
2022-10-23T01:30:42.973Z,12.70
2022-10-23T01:33:18.362Z,12.30
2022-10-23T01:35:56.792Z,13.90
2022-10-23T01:38:56.339Z,11.20
2022-10-23T01:41:36.132Z,11.10
2022-10-23T01:44:11.030Z,11.20
2022-10-23T01:46:40.525Z,11.50
2022-10-23T01:49:13.070Z,11.10
2022-10-23T01:52:01.677Z,11.20
2022-10-23T01:54:34.255Z,12.50
2022-10-23T01:57:04.576Z,11.40
2022-10-23T01:59:39.689Z,11.40
2022-10-23T02:02:11.468Z,11.10
2022-10-23T02:04:57.684Z,12.60
2022-10-23T02:07:26.484Z,11.90
2022-10-23T02:09:54.755Z,10.40
2022-10-23T02:12:49.757Z,10.40
2022-10-23T02:15:46.639Z,10.60
2022-10-23T02:18:50.552Z,10.80
2022-10-23T02:22:09.617Z,10.80
2022-10-23T02:25:23.174Z,11.20
2022-10-23T02:27:55.211Z,12.50
2022-10-23T02:30:23.584Z,11.90
2022-10-23T02:32:54.957Z,12.80
2022-10-23T02:35:25.341Z,12.30
2022-10-23T02:38:00.138Z,13.90
2022-10-23T02:40:38.899Z,13.40
2022-10-23T02:43:15.779Z,13.00
2022-10-23T02:46:16.305Z,15.00
2022-10-23T02:48:58.681Z,14.20
2022-10-23T02:52:07.745Z,15.30
2022-10-23T02:55:18.250Z,15.90
2022-10-23T02:58:00.810Z,15.80
2022-10-23T03:00:32.921Z,14.70
2022-10-23T03:03:10.110Z,16.50
2022-10-23T03:05:41.558Z,17.90
2022-10-23T03:08:11.885Z,18.30
2022-10-23T03:10:41.907Z,15.10
2022-10-23T03:13:11.643Z,15.70
2022-10-23T03:15:39.850Z,16.60
2022-10-23T03:18:08.105Z,16.80
2022-10-23T03:20:36.446Z,14.90
2022-10-23T03:23:04.696Z,15.80
2022-10-23T03:25:32.886Z,13.00
2022-10-23T03:28:01.194Z,14.40
2022-10-23T03:30:29.937Z,14.30
2022-10-23T03:32:58.381Z,15.20
2022-10-23T03:35:26.711Z,14.90
2022-10-23T03:37:54.964Z,14.50
2022-10-23T03:40:23.188Z,14.30
2022-10-23T03:42:51.490Z,15.20
2022-10-23T03:45:19.981Z,13.70
2022-10-23T03:47:48.777Z,14.10
2022-10-23T03:50:18.430Z,14.10
2022-10-23T03:52:46.674Z,14.10
2022-10-23T03:55:14.890Z,13.40
2022-10-23T03:57:43.267Z,14.00
2022-10-23T04:00:12.311Z,12.50
2022-10-23T04:02:40.697Z,14.00
2022-10-23T04:05:09.275Z,14.70
2022-10-23T04:07:37.881Z,14.80
2022-10-23T04:10:07.233Z,13.80
2022-10-23T04:12:35.526Z,13.10
2022-10-23T04:15:04.505Z,12.40
2022-10-23T04:17:32.720Z,12.20
2022-10-23T04:20:01.005Z,12.70
2022-10-23T04:22:29.226Z,13.00
2022-10-23T04:24:57.419Z,11.30
2022-10-23T04:27:25.747Z,12.10
2022-10-23T04:29:56.786Z,13.00
2022-10-23T04:32:27.335Z,12.20
2022-10-23T04:34:55.609Z,13.10
2022-10-23T04:37:23.870Z,12.70
2022-10-23T04:39:52.092Z,10.90
2022-10-23T04:42:20.668Z,10.60
2022-10-23T04:44:48.936Z,11.60
2022-10-23T04:47:17.168Z,10.00
2022-10-23T04:49:45.428Z,12.10
2022-10-23T04:52:13.669Z,12.70
2022-10-23T04:54:42.000Z,11.70
2022-10-23T04:57:11.060Z,11.40
2022-10-23T04:59:39.687Z,12.20
2022-10-23T05:02:08.327Z,11.80
2022-10-23T05:04:36.567Z,13.40
2022-10-23T05:07:04.751Z,12.30
2022-10-23T05:09:33.188Z,10.50
2022-10-23T05:12:01.928Z,10.90
2022-10-23T05:14:30.738Z,11.70
2022-10-23T05:17:13.109Z,11.90
2022-10-23T05:19:50.399Z,12.20
2022-10-23T05:22:20.826Z,13.20
2022-10-23T05:24:50.606Z,11.50
2022-10-23T05:27:19.354Z,10.70
2022-10-23T05:29:47.627Z,10.70
2022-10-23T05:32:16.953Z,10.80
2022-10-23T05:34:45.697Z,9.90
2022-10-23T05:37:16.777Z,10.20
2022-10-23T05:39:45.051Z,10.10
2022-10-23T05:42:13.415Z,11.70
2022-10-23T05:44:41.742Z,10.90
2022-10-23T05:47:10.034Z,10.50
2022-10-23T05:49:38.230Z,10.90
2022-10-23T05:52:06.530Z,11.10
2022-10-23T05:54:34.749Z,12.60
2022-10-23T05:57:03.067Z,13.20
2022-10-23T05:59:31.406Z,11.00
2022-10-23T06:01:59.895Z,10.00
2022-10-23T06:04:28.430Z,9.90
2022-10-23T06:06:56.657Z,10.30
2022-10-23T06:09:24.906Z,10.70
2022-10-23T06:11:53.235Z,10.20
2022-10-23T06:14:21.499Z,10.00
2022-10-23T06:16:49.805Z,10.00
2022-10-23T06:19:18.422Z,12.30
2022-10-23T06:21:46.584Z,11.10
2022-10-23T06:24:15.062Z,12.20
2022-10-23T06:26:43.254Z,13.20
2022-10-23T06:29:11.713Z,12.90
2022-10-23T06:31:39.950Z,11.40
2022-10-23T06:34:11.926Z,12.80
2022-10-23T06:36:40.323Z,12.10
2022-10-23T06:39:10.176Z,13.10
2022-10-23T06:41:39.876Z,11.60
2022-10-23T06:44:10.202Z,11.70
2022-10-23T06:46:38.504Z,13.40
2022-10-23T06:49:06.920Z,11.60
2022-10-23T06:51:35.159Z,14.30
2022-10-23T06:54:03.530Z,13.30
2022-10-23T06:56:31.725Z,12.60
2022-10-23T06:59:00.004Z,12.70
2022-10-23T07:01:28.432Z,11.70
2022-10-23T07:03:56.888Z,13.50
2022-10-23T07:06:25.177Z,14.30
2022-10-23T07:08:53.468Z,13.10
2022-10-23T07:11:21.705Z,13.20
2022-10-23T07:13:49.915Z,12.30
2022-10-23T07:16:22.025Z,12.60
2022-10-23T07:18:59.719Z,12.50
2022-10-23T07:21:31.422Z,13.70
2022-10-23T07:23:59.612Z,12.60
2022-10-23T07:26:28.718Z,15.40
2022-10-23T07:28:56.925Z,14.60
2022-10-23T07:31:28.151Z,13.10
2022-10-23T07:33:56.740Z,13.10
2022-10-23T07:36:25.131Z,13.40
2022-10-23T07:38:53.492Z,12.40
2022-10-23T07:41:21.874Z,12.20
2022-10-23T07:43:50.133Z,11.00
2022-10-23T07:46:18.390Z,13.70
2022-10-23T07:48:46.602Z,14.00
2022-10-23T07:51:16.463Z,11.20
2022-10-23T07:53:45.629Z,11.90
2022-10-23T07:56:21.072Z,12.20
2022-10-23T07:58:53.786Z,11.90
2022-10-23T08:01:30.950Z,11.20
2022-10-23T08:04:00.936Z,11.00
2022-10-23T08:06:29.897Z,10.20
2022-10-23T08:08:59.916Z,10.00
2022-10-23T08:11:35.294Z,11.40
2022-10-23T08:14:06.003Z,10.80
2022-10-23T08:16:37.958Z,10.10
2022-10-23T08:19:08.139Z,10.80
2022-10-23T08:21:36.555Z,10.30
2022-10-23T08:24:05.489Z,7.40
2022-10-23T08:26:33.862Z,9.00
2022-10-23T08:29:02.089Z,9.40
2022-10-23T08:31:30.453Z,8.60
2022-10-23T08:33:58.741Z,9.20
2022-10-23T08:36:28.835Z,9.00
2022-10-23T08:38:58.179Z,8.20
2022-10-23T08:41:44.285Z,9.20
2022-10-23T08:44:57.232Z,9.20
2022-10-23T08:47:43.102Z,8.70
2022-10-23T08:50:42.576Z,8.70
2022-10-23T08:53:45.580Z,6.90
2022-10-23T08:56:21.407Z,6.70
2022-10-23T08:59:28.226Z,7.10
2022-10-23T09:02:11.724Z,6.40
2022-10-23T09:04:42.631Z,6.30
2022-10-23T09:07:52.622Z,6.40
2022-10-23T09:10:32.830Z,5.40
2022-10-23T09:13:31.314Z,4.50
2022-10-23T09:16:25.415Z,5.60
2022-10-23T09:18:54.948Z,4.80
2022-10-23T09:21:30.235Z,3.90
2022-10-23T09:23:58.449Z,4.50
2022-10-23T09:26:26.715Z,5.00
2022-10-23T09:29:14.258Z,3.60
2022-10-23T09:31:57.988Z,3.50
2022-10-23T09:34:30.035Z,4.00
2022-10-23T09:37:17.609Z,4.70
2022-10-23T09:39:46.237Z,5.00
2022-10-23T09:42:26.016Z,4.00
2022-10-23T09:44:55.791Z,4.10
2022-10-23T09:47:26.073Z,4.80
2022-10-23T09:49:57.103Z,4.20
2022-10-23T09:52:38.953Z,3.60
2022-10-23T09:55:25.148Z,3.90
2022-10-23T09:57:54.282Z,4.90
2022-10-23T10:00:28.002Z,4.60
2022-10-23T10:03:06.632Z,4.40
2022-10-23T10:05:41.508Z,3.80
2022-10-23T10:08:40.601Z,3.60
2022-10-23T10:11:30.631Z,3.20
2022-10-23T10:14:47.018Z,2.90
2022-10-23T10:20:12.784Z,2.40
2022-10-23T10:22:58.577Z,2.60
2022-10-23T10:25:49.752Z,2.60
2022-10-23T10:28:34.199Z,2.50
2022-10-23T10:31:29.895Z,2.90
2022-10-23T10:34:22.390Z,3.00
2022-10-23T10:37:16.945Z,3.60
2022-10-23T10:40:00.096Z,2.70
2022-10-23T10:43:13.532Z,3.80
2022-10-23T10:45:53.300Z,3.90
2022-10-23T10:48:59.477Z,3.70
2022-10-23T10:51:49.122Z,2.80
2022-10-23T10:54:43.814Z,3.10
2022-10-23T10:57:36.587Z,3.20
2022-10-23T11:00:28.565Z,4.60
2022-10-23T11:03:28.891Z,3.40
2022-10-23T11:08:49.964Z,3.30
2022-10-23T11:11:37.707Z,3.30
2022-10-23T11:14:14.319Z,3.00
2022-10-23T11:16:48.110Z,2.70
2022-10-23T11:19:34.444Z,3.60
2022-10-23T11:22:28.659Z,3.10
2022-10-23T11:25:34.012Z,3.30
2022-10-23T11:28:35.114Z,2.80
2022-10-23T11:31:11.919Z,3.70
2022-10-23T11:34:51.903Z,3.30
2022-10-23T11:37:22.453Z,2.70
2022-10-23T11:40:23.913Z,2.90
2022-10-23T11:42:52.720Z,2.80
2022-10-23T11:45:37.765Z,2.70
2022-10-23T11:48:43.663Z,3.90
2022-10-23T11:54:13.590Z,3.00
2022-10-23T11:57:11.646Z,4.10
2022-10-23T11:59:49.153Z,3.20
2022-10-23T12:02:37.627Z,4.20
2022-10-23T12:05:07.265Z,4.20
2022-10-23T12:07:41.926Z,3.00
2022-10-23T12:10:34.419Z,3.40
2022-10-23T12:13:38.903Z,4.00
2022-10-23T12:16:07.615Z,4.70
2022-10-23T12:18:54.161Z,3.20
2022-10-23T12:21:28.427Z,4.30
2022-10-23T12:24:31.640Z,3.90
2022-10-23T12:27:29.837Z,3.70
2022-10-23T12:30:04.084Z,3.70
2022-10-23T12:33:26.790Z,3.10
2022-10-23T12:36:47.345Z,3.60
2022-10-23T12:39:33.622Z,3.00
2022-10-23T12:42:02.538Z,2.90
2022-10-23T12:44:31.669Z,3.20
2022-10-23T12:47:02.752Z,2.90
2022-10-23T12:49:34.199Z,3.40
2022-10-23T12:52:17.002Z,3.30
2022-10-23T12:54:45.467Z,2.60
2022-10-23T12:57:29.278Z,3.40
2022-10-23T13:00:06.355Z,3.40
2022-10-23T13:02:35.682Z,3.30
2022-10-23T13:05:09.051Z,3.80
2022-10-23T13:07:44.585Z,3.80
2022-10-23T13:10:19.938Z,3.00
2022-10-23T13:13:04.648Z,4.00
2022-10-23T13:15:43.284Z,2.90
2022-10-23T13:18:14.919Z,3.60
2022-10-23T13:20:57.471Z,3.20
2022-10-23T13:23:36.017Z,2.90
2022-10-23T13:26:24.311Z,3.10
2022-10-23T13:28:53.026Z,3.10
2022-10-23T13:31:21.354Z,3.20
2022-10-23T13:34:14.239Z,3.00
2022-10-23T13:36:54.903Z,2.70
2022-10-23T13:39:30.859Z,3.80
2022-10-23T13:42:11.420Z,3.20
2022-10-23T13:44:41.059Z,19.70
2022-10-23T13:47:13.359Z,94.00
2022-10-23T13:49:41.641Z,148.90
2022-10-23T13:52:19.472Z,26.10
2022-10-23T13:54:47.810Z,12.00
2022-10-23T13:57:16.478Z,5.20
2022-10-23T13:59:45.560Z,4.80
2022-10-23T14:02:23.628Z,3.40
2022-10-23T14:04:52.159Z,3.70
2022-10-23T14:07:20.431Z,8.50
2022-10-23T14:09:50.572Z,6.00
2022-10-23T14:12:19.159Z,4.70
2022-10-23T14:14:52.202Z,9.80
2022-10-23T14:17:21.486Z,3.80
2022-10-23T14:19:50.357Z,3.80
2022-10-23T14:22:18.583Z,3.90
2022-10-23T14:24:46.841Z,3.40
2022-10-23T14:27:15.170Z,4.00
2022-10-23T14:29:43.460Z,3.20
2022-10-23T14:32:12.074Z,37.80
2022-10-23T14:34:43.088Z,20.80
2022-10-23T14:37:11.351Z,36.90
2022-10-23T14:39:39.557Z,109.50
2022-10-23T14:42:07.851Z,66.10
2022-10-23T14:44:36.180Z,11.90
2022-10-23T14:47:04.832Z,6.30
2022-10-23T14:49:35.762Z,16.30
2022-10-23T14:52:04.326Z,15.90
2022-10-23T14:54:34.564Z,10.80
2022-10-23T14:57:03.868Z,7.70
2022-10-23T14:59:32.276Z,5.20
2022-10-23T15:02:00.684Z,6.20
2022-10-23T15:04:28.951Z,5.70
2022-10-23T15:06:57.282Z,4.70
2022-10-23T15:09:26.079Z,6.00
2022-10-23T15:11:54.454Z,4.70
2022-10-23T15:14:22.684Z,5.40
2022-10-23T15:16:51.351Z,4.70
2022-10-23T15:19:19.852Z,5.10
2022-10-23T15:21:48.695Z,4.40
2022-10-23T15:24:17.550Z,5.00
2022-10-23T15:26:46.026Z,5.20
2022-10-23T15:29:14.961Z,5.10
2022-10-23T15:31:54.713Z,5.20
2022-10-23T15:34:27.081Z,4.70
2022-10-23T15:36:57.468Z,5.30
2022-10-23T15:39:33.756Z,5.40
2022-10-23T15:42:06.083Z,6.00
2022-10-23T15:44:35.136Z,6.60
2022-10-23T15:47:03.790Z,6.20
2022-10-23T15:49:32.719Z,5.80
2022-10-23T15:52:02.398Z,6.40
2022-10-23T15:54:32.935Z,5.60
2022-10-23T15:57:02.564Z,6.40
2022-10-23T15:59:32.259Z,9.20
2022-10-23T16:02:00.985Z,15.50
2022-10-23T16:04:29.986Z,6.40
2022-10-23T16:06:58.282Z,6.00
2022-10-23T16:09:26.610Z,6.70
2022-10-23T16:11:54.828Z,5.10
2022-10-23T16:14:23.132Z,4.70
2022-10-23T16:16:51.435Z,4.60
2022-10-23T16:19:19.766Z,4.70
2022-10-23T16:21:48.127Z,5.90
2022-10-23T16:24:16.409Z,5.50
2022-10-23T16:26:50.219Z,6.40
2022-10-23T16:29:24.414Z,5.80
2022-10-23T16:31:54.420Z,6.00
2022-10-23T16:34:23.305Z,5.20
2022-10-23T16:36:51.593Z,6.10
2022-10-23T16:39:20.876Z,5.30
2022-10-23T16:41:49.187Z,6.80
2022-10-23T16:44:18.227Z,6.30
2022-10-23T16:46:46.499Z,6.20
2022-10-23T16:49:14.836Z,8.00
2022-10-23T16:51:43.094Z,7.80
2022-10-23T16:54:11.458Z,6.90
2022-10-23T16:56:40.218Z,8.30
2022-10-23T16:59:09.911Z,10.50
2022-10-23T17:01:38.491Z,9.10
2022-10-23T17:04:08.374Z,9.80
2022-10-23T17:06:37.551Z,9.90
2022-10-23T17:09:06.361Z,12.40
2022-10-23T17:11:38.908Z,13.70
2022-10-23T17:14:12.095Z,19.60
2022-10-23T17:16:50.412Z,16.70
2022-10-23T17:22:12.531Z,14.00
2022-10-23T17:24:44.225Z,13.80
2022-10-23T17:27:14.766Z,12.50
2022-10-23T17:29:43.100Z,11.80
2022-10-23T17:32:11.369Z,9.50
2022-10-23T17:34:39.720Z,10.60
2022-10-23T17:37:09.048Z,10.90
2022-10-23T17:39:37.431Z,10.90
2022-10-23T17:42:05.730Z,11.70
2022-10-23T17:44:34.036Z,12.20
2022-10-23T17:47:02.353Z,11.80
2022-10-23T17:49:30.718Z,11.90
2022-10-23T17:51:58.974Z,13.90
2022-10-23T17:54:28.024Z,14.80
2022-10-23T17:56:57.086Z,15.90
2022-10-23T17:59:25.336Z,18.00
2022-10-23T18:01:53.890Z,17.70
2022-10-23T18:04:22.433Z,16.90
2022-10-23T18:06:53.637Z,15.00
2022-10-23T18:09:23.105Z,14.60
2022-10-23T18:11:51.798Z,14.60
2022-10-23T18:14:21.708Z,14.90
2022-10-23T18:16:52.556Z,13.80
2022-10-23T18:19:21.320Z,12.80
2022-10-23T18:21:49.659Z,13.40
2022-10-23T18:24:19.198Z,15.60
2022-10-23T18:26:48.391Z,16.50
2022-10-23T18:29:17.992Z,18.50
2022-10-23T18:31:48.429Z,17.50
2022-10-23T18:34:21.703Z,18.80
2022-10-23T18:36:52.408Z,21.00
2022-10-23T18:39:24.749Z,23.40
2022-10-23T18:41:56.944Z,20.80
2022-10-23T18:44:28.989Z,20.30
2022-10-23T18:46:59.438Z,20.80
2022-10-23T18:49:28.393Z,25.60
2022-10-23T18:51:58.343Z,31.70
2022-10-23T18:54:27.284Z,32.60
2022-10-23T18:56:55.730Z,31.20
2022-10-23T18:59:24.498Z,28.30
2022-10-23T19:01:53.043Z,23.10
2022-10-23T19:04:21.504Z,25.80
2022-10-23T19:06:50.809Z,21.90
2022-10-23T19:09:20.193Z,20.10
2022-10-23T19:11:49.255Z,19.10
2022-10-23T19:14:17.639Z,18.80
2022-10-23T19:16:59.835Z,18.30
2022-10-23T19:19:41.508Z,16.90
2022-10-23T19:22:12.593Z,15.70
2022-10-23T19:24:58.364Z,15.80
2022-10-23T19:27:27.078Z,15.00
2022-10-23T19:29:56.390Z,13.90
2022-10-23T19:32:24.696Z,14.00
2022-10-23T19:34:52.954Z,11.80
2022-10-23T19:37:21.196Z,11.70
2022-10-23T19:39:49.410Z,12.50
2022-10-23T19:42:17.669Z,14.60
2022-10-23T19:44:45.884Z,14.50
2022-10-23T19:47:14.168Z,15.10
2022-10-23T19:49:42.378Z,15.20
2022-10-23T19:52:10.902Z,16.00
2022-10-23T19:54:41.087Z,15.40
2022-10-23T19:57:09.475Z,19.90
2022-10-23T19:59:37.892Z,26.90
2022-10-23T20:02:06.514Z,33.90
2022-10-23T20:04:35.436Z,25.70
2022-10-23T20:07:03.689Z,19.90
2022-10-23T20:09:31.959Z,16.60
2022-10-23T20:12:00.780Z,14.30
2022-10-23T20:14:29.575Z,14.50
2022-10-23T20:16:59.732Z,15.00
2022-10-23T20:19:28.563Z,14.20
2022-10-23T20:21:56.949Z,13.20
2022-10-23T20:24:25.121Z,13.50
2022-10-23T20:26:55.820Z,14.10
2022-10-23T20:29:25.037Z,13.20
2022-10-23T20:31:53.341Z,12.80
2022-10-23T20:34:21.733Z,14.60
2022-10-23T20:36:50.183Z,15.10
2022-10-23T20:39:26.932Z,15.10
2022-10-23T20:41:56.689Z,12.40
2022-10-23T20:44:24.911Z,12.40
2022-10-23T20:46:53.403Z,12.10
2022-10-23T20:49:22.868Z,11.90
2022-10-23T20:51:55.661Z,12.00
2022-10-23T20:54:27.546Z,12.10
2022-10-23T20:56:57.050Z,12.20
2022-10-23T20:59:25.614Z,11.20
2022-10-23T21:01:56.313Z,9.90
2022-10-23T21:04:27.991Z,12.30
2022-10-23T21:07:09.406Z,10.50
2022-10-23T21:09:39.941Z,11.90
2022-10-23T21:12:09.010Z,12.70
2022-10-23T21:14:37.370Z,10.40
2022-10-23T21:17:05.829Z,12.50
2022-10-23T21:19:34.441Z,13.30
2022-10-23T21:22:02.676Z,14.00
2022-10-23T21:24:31.175Z,15.50
2022-10-23T21:26:59.433Z,15.30
2022-10-23T21:29:27.710Z,14.60
2022-10-23T21:31:59.739Z,16.10
2022-10-23T21:34:29.047Z,17.40
2022-10-23T21:37:14.100Z,16.70
2022-10-23T21:39:44.494Z,16.00
2022-10-23T21:42:14.477Z,16.30
2022-10-23T21:44:42.906Z,15.70
2022-10-23T21:47:11.430Z,17.80
2022-10-23T21:49:39.687Z,16.20
2022-10-23T21:52:07.997Z,16.60
2022-10-23T21:54:36.318Z,16.50
2022-10-23T21:57:04.576Z,18.10
2022-10-23T21:59:35.923Z,16.30
2022-10-23T22:02:04.820Z,18.60
2022-10-23T22:04:33.287Z,17.90
2022-10-23T22:07:03.041Z,18.50
2022-10-23T22:09:32.900Z,17.20
2022-10-23T22:12:01.642Z,19.20
2022-10-23T22:14:29.975Z,19.50
2022-10-23T22:16:58.839Z,19.00
2022-10-23T22:19:27.178Z,18.30
2022-10-23T22:21:55.544Z,17.20
2022-10-23T22:24:24.002Z,18.80
2022-10-23T22:26:56.148Z,18.30
2022-10-23T22:29:28.549Z,18.50
2022-10-23T22:31:58.128Z,16.90
2022-10-23T22:37:18.324Z,16.90
2022-10-23T22:39:50.454Z,16.50
2022-10-23T22:42:20.262Z,17.20
2022-10-23T22:44:48.529Z,15.10
2022-10-23T22:47:16.810Z,15.00
2022-10-23T22:49:45.060Z,15.80
2022-10-23T22:52:13.467Z,16.00
2022-10-23T22:54:41.713Z,14.10
2022-10-23T22:57:09.915Z,16.50
2022-10-23T22:59:38.165Z,15.30
2022-10-23T23:02:06.692Z,15.60
2022-10-23T23:04:38.864Z,14.90
2022-10-23T23:07:10.923Z,14.60
2022-10-23T23:09:43.802Z,15.10
2022-10-23T23:12:14.455Z,13.80
2022-10-23T23:14:43.038Z,14.70
2022-10-23T23:17:11.834Z,14.30
2022-10-23T23:19:40.632Z,14.00
2022-10-23T23:22:09.137Z,13.40
2022-10-23T23:24:38.992Z,13.30
2022-10-23T23:27:07.367Z,12.10
2022-10-23T23:29:35.564Z,12.80
2022-10-23T23:32:06.132Z,11.60
2022-10-23T23:34:34.491Z,11.90
2022-10-23T23:37:02.710Z,12.60
2022-10-23T23:39:31.018Z,12.70
2022-10-23T23:41:59.269Z,11.40
2022-10-23T23:44:27.535Z,12.30
2022-10-23T23:46:56.014Z,11.30
2022-10-23T23:49:24.419Z,12.50
2022-10-23T23:51:52.686Z,11.70
2022-10-23T23:54:20.909Z,10.60
2022-10-23T23:56:49.160Z,11.90
2022-10-23T23:59:17.412Z,12.50
